createdAt,value
2018-09-29T00:01:52.759Z,53.33
2018-09-29T00:04:05.779Z,54.24
2018-09-29T00:06:18.032Z,53.61
2018-09-29T00:08:30.276Z,54.14
2018-09-29T00:10:42.559Z,54.29
2018-09-29T00:12:54.751Z,53.22
2018-09-29T00:15:07.426Z,53.24
2018-09-29T00:17:19.678Z,54.39
2018-09-29T00:19:32.956Z,54.17
2018-09-29T00:21:45.242Z,54.77
2018-09-29T00:23:57.428Z,53.18
2018-09-29T00:26:09.677Z,54.05
2018-09-29T00:28:21.967Z,53.44
2018-09-29T00:30:34.192Z,53.37
2018-09-29T00:32:46.415Z,53.25
2018-09-29T00:34:58.619Z,53.89
2018-09-29T00:37:10.907Z,53.12
2018-09-29T00:39:23.113Z,52.31
2018-09-29T00:41:35.347Z,52.86
2018-09-29T00:43:47.554Z,51.45
2018-09-29T00:45:59.767Z,51.98
2018-09-29T00:48:11.995Z,52.45
2018-09-29T00:50:24.179Z,51.93
2018-09-29T00:52:36.360Z,51.69
2018-09-29T00:54:48.557Z,51.89
2018-09-29T00:57:00.792Z,51.30
2018-09-29T00:59:13.003Z,51.34
2018-09-29T01:01:25.200Z,52.08
2018-09-29T01:03:37.397Z,51.62
2018-09-29T01:05:49.599Z,51.32
2018-09-29T01:08:01.794Z,52.29
2018-09-29T01:10:14.035Z,51.06
2018-09-29T01:12:26.200Z,51.71
2018-09-29T01:14:38.386Z,51.82
2018-09-29T01:16:50.624Z,51.50
2018-09-29T01:19:02.821Z,51.01
2018-09-29T01:21:15.039Z,51.74
2018-09-29T01:23:27.225Z,51.73
2018-09-29T01:25:39.417Z,52.09
2018-09-29T01:27:51.595Z,51.10
2018-09-29T01:30:03.879Z,51.66
2018-09-29T01:32:16.051Z,51.49
2018-09-29T01:34:28.239Z,51.70
2018-09-29T01:36:40.468Z,50.77
2018-09-29T01:38:52.644Z,51.70
2018-09-29T01:41:04.857Z,51.19
2018-09-29T01:43:17.091Z,50.90
2018-09-29T01:45:29.356Z,51.15
2018-09-29T01:47:41.542Z,51.06
2018-09-29T01:49:53.738Z,50.71
2018-09-29T01:52:06.010Z,50.29
2018-09-29T01:54:18.205Z,50.49
2018-09-29T01:56:30.497Z,51.02
2018-09-29T01:58:42.675Z,50.12
2018-09-29T02:00:54.864Z,50.03
2018-09-29T02:03:11.190Z,50.91
2018-09-29T02:05:23.368Z,50.32
2018-09-29T02:07:35.568Z,50.78
2018-09-29T02:09:47.972Z,49.79
2018-09-29T02:12:00.183Z,50.82
2018-09-29T02:14:12.364Z,50.37
2018-09-29T02:16:24.564Z,50.33
2018-09-29T02:18:36.787Z,50.46
2018-09-29T02:20:48.955Z,51.00
2018-09-29T02:23:01.164Z,50.82
2018-09-29T02:25:13.351Z,50.59
2018-09-29T02:27:25.548Z,50.26
2018-09-29T02:29:37.775Z,49.52
2018-09-29T02:31:49.946Z,49.83
2018-09-29T02:34:02.136Z,49.50
2018-09-29T02:36:14.363Z,50.77
2018-09-29T02:38:26.540Z,49.88
2018-09-29T02:40:38.726Z,50.69
2018-09-29T02:42:50.933Z,51.13
2018-09-29T02:45:03.153Z,50.68
2018-09-29T02:47:15.363Z,50.42
2018-09-29T02:49:27.562Z,50.28
2018-09-29T02:51:39.792Z,50.89
2018-09-29T02:53:52.033Z,50.39
2018-09-29T02:56:04.255Z,49.14
2018-09-29T02:58:16.476Z,49.54
2018-09-29T03:00:28.622Z,49.61
2018-09-29T03:02:40.809Z,49.38
2018-09-29T03:04:53.271Z,50.65
2018-09-29T03:07:05.473Z,50.51
2018-09-29T03:09:17.691Z,50.69
2018-09-29T03:11:29.871Z,49.76
2018-09-29T03:13:42.116Z,50.80
2018-09-29T03:15:54.295Z,49.75
2018-09-29T03:18:06.487Z,49.51
2018-09-29T03:20:18.704Z,50.98
2018-09-29T03:22:30.902Z,50.81
2018-09-29T03:24:43.070Z,49.54
2018-09-29T03:26:55.255Z,49.84
2018-09-29T03:29:07.450Z,50.15
2018-09-29T03:31:19.720Z,50.66
2018-09-29T03:33:31.890Z,51.51
2018-09-29T03:35:44.117Z,51.15
2018-09-29T03:37:56.311Z,51.69
2018-09-29T03:40:09.153Z,51.22
2018-09-29T03:42:21.363Z,52.19
2018-09-29T03:44:33.560Z,53.93
2018-09-29T03:46:45.795Z,53.37
2018-09-29T03:48:57.960Z,53.58
2018-09-29T03:51:10.163Z,53.95
2018-09-29T03:53:22.424Z,54.39
2018-09-29T03:55:34.642Z,55.26
2018-09-29T03:57:46.830Z,54.69
2018-09-29T03:59:59.026Z,55.34
2018-09-29T04:02:11.253Z,55.62
2018-09-29T04:04:23.435Z,56.63
2018-09-29T04:06:35.612Z,56.11
2018-09-29T04:08:47.823Z,57.06
2018-09-29T04:11:00.034Z,58.54
2018-09-29T04:13:12.236Z,59.62
2018-09-29T04:15:24.425Z,61.35
2018-09-29T04:17:36.680Z,60.80
2018-09-29T04:19:48.930Z,61.29
2018-09-29T04:22:01.112Z,61.95
2018-09-29T04:24:13.743Z,62.90
2018-09-29T04:26:25.931Z,63.17
2018-09-29T04:28:38.159Z,63.43
2018-09-29T04:30:50.377Z,62.91
2018-09-29T04:33:02.597Z,63.60
2018-09-29T04:35:14.826Z,64.49
2018-09-29T04:37:26.992Z,64.99
2018-09-29T04:39:39.198Z,64.36
2018-09-29T04:41:51.455Z,64.05
2018-09-29T04:44:03.695Z,64.50
2018-09-29T04:46:15.867Z,64.42
2018-09-29T04:48:28.035Z,64.54
2018-09-29T04:50:40.242Z,65.00
2018-09-29T04:52:52.454Z,65.99
2018-09-29T04:55:04.923Z,65.40
2018-09-29T04:57:17.918Z,65.37
2018-09-29T04:59:30.148Z,66.41
2018-09-29T05:01:42.356Z,65.68
2018-09-29T05:03:54.563Z,65.70
2018-09-29T05:06:07.051Z,66.03
2018-09-29T05:08:19.230Z,66.00
2018-09-29T05:10:31.439Z,64.94
2018-09-29T05:12:43.683Z,64.87
2018-09-29T05:14:55.944Z,64.08
2018-09-29T05:17:08.179Z,63.07
2018-09-29T05:19:20.370Z,60.35
2018-09-29T05:21:32.580Z,61.51
2018-09-29T05:23:45.013Z,59.69
2018-09-29T05:25:57.242Z,59.91
2018-09-29T05:28:10.420Z,58.94
2018-09-29T05:30:22.605Z,58.91
2018-09-29T05:32:34.811Z,56.98
2018-09-29T05:34:47.119Z,57.10
2018-09-29T05:36:59.314Z,56.34
2018-09-29T05:39:11.567Z,79.38
2018-09-29T05:41:23.783Z,66.81
2018-09-29T05:43:36.053Z,59.65
2018-09-29T05:45:48.534Z,53.45
2018-09-29T05:48:00.745Z,52.38
2018-09-29T05:50:12.984Z,49.41
2018-09-29T05:52:25.186Z,50.21
2018-09-29T05:54:37.431Z,46.03
2018-09-29T05:56:49.639Z,44.30
2018-09-29T05:59:01.872Z,47.44
2018-09-29T06:01:14.083Z,47.72
2018-09-29T06:03:26.265Z,44.33
2018-09-29T06:05:38.586Z,45.69
2018-09-29T06:07:50.780Z,44.62
2018-09-29T06:10:03.090Z,47.70
2018-09-29T06:12:15.294Z,47.14
2018-09-29T06:14:27.522Z,45.36
2018-09-29T06:16:39.803Z,44.93
2018-09-29T06:18:52.175Z,45.12
2018-09-29T06:21:05.034Z,44.77
2018-09-29T06:23:23.236Z,43.93
2018-09-29T06:25:39.077Z,46.66
2018-09-29T06:27:51.360Z,45.74
2018-09-29T06:30:03.972Z,45.39
2018-09-29T06:32:16.175Z,45.24
2018-09-29T06:34:28.387Z,45.63
2018-09-29T06:36:40.674Z,46.30
2018-09-29T06:38:52.899Z,46.74
2018-09-29T06:41:05.175Z,46.75
2018-09-29T06:43:17.390Z,45.22
2018-09-29T06:45:29.632Z,44.07
2018-09-29T06:47:42.038Z,44.03
2018-09-29T06:49:54.347Z,43.90
2018-09-29T06:52:06.639Z,43.63
2018-09-29T06:54:18.899Z,43.44
2018-09-29T06:56:31.151Z,44.21
2018-09-29T06:58:43.472Z,44.69
2018-09-29T07:00:55.738Z,43.58
2018-09-29T07:03:08.013Z,43.90
2018-09-29T07:05:20.226Z,43.83
2018-09-29T07:07:32.437Z,43.41
2018-09-29T07:09:45.138Z,43.89
2018-09-29T07:11:57.403Z,43.03
2018-09-29T07:14:09.682Z,43.23
2018-09-29T07:16:21.994Z,43.45
2018-09-29T07:18:34.266Z,42.76
2018-09-29T07:20:46.506Z,42.48
2018-09-29T07:22:58.746Z,43.38
2018-09-29T07:25:10.953Z,42.88
2018-09-29T07:27:23.231Z,41.28
2018-09-29T07:29:35.467Z,41.61
2018-09-29T07:31:47.720Z,41.93
2018-09-29T07:33:59.981Z,43.09
2018-09-29T07:36:12.255Z,41.86
2018-09-29T07:38:24.494Z,42.36
2018-09-29T07:40:36.706Z,42.07
2018-09-29T07:42:48.979Z,40.41
2018-09-29T07:45:01.247Z,40.02
2018-09-29T07:47:13.482Z,39.07
2018-09-29T07:49:25.741Z,39.47
2018-09-29T07:51:37.960Z,39.60
2018-09-29T07:53:50.208Z,40.93
2018-09-29T07:56:02.520Z,39.83
2018-09-29T07:58:14.772Z,39.71
2018-09-29T08:00:27.080Z,39.96
2018-09-29T08:02:39.394Z,38.71
2018-09-29T08:04:51.664Z,39.47
2018-09-29T08:07:03.894Z,39.53
2018-09-29T08:09:16.174Z,40.97
2018-09-29T08:11:28.444Z,40.24
2018-09-29T08:13:40.776Z,40.11
2018-09-29T08:15:53.035Z,41.00
2018-09-29T08:18:05.343Z,39.98
2018-09-29T08:20:17.582Z,39.70
2018-09-29T08:22:29.933Z,40.21
2018-09-29T08:24:42.268Z,38.92
2018-09-29T08:26:54.486Z,40.19
2018-09-29T08:29:06.688Z,39.86
2018-09-29T08:31:19.528Z,39.84
2018-09-29T08:33:31.792Z,37.73
2018-09-29T08:35:44.215Z,39.19
2018-09-29T08:37:56.642Z,38.47
2018-09-29T08:40:08.830Z,37.93
2018-09-29T08:42:21.020Z,37.66
2018-09-29T08:44:33.298Z,37.83
2018-09-29T08:46:45.581Z,37.29
2018-09-29T08:48:57.890Z,38.74
2018-09-29T08:51:10.208Z,37.86
2018-09-29T08:53:22.508Z,38.28
2018-09-29T08:55:34.671Z,38.20
2018-09-29T08:57:46.866Z,38.09
2018-09-29T08:59:59.135Z,38.90
2018-09-29T09:02:11.390Z,37.87
2018-09-29T09:04:23.675Z,36.94
2018-09-29T09:06:35.918Z,37.77
2018-09-29T09:08:48.151Z,37.06
2018-09-29T09:11:00.451Z,37.75
2018-09-29T09:13:12.671Z,36.85
2018-09-29T09:15:24.946Z,36.97
2018-09-29T09:17:37.178Z,37.52
2018-09-29T09:19:49.395Z,36.92
2018-09-29T09:22:01.688Z,37.11
2018-09-29T09:24:13.962Z,36.95
2018-09-29T09:26:26.510Z,37.21
2018-09-29T09:28:38.858Z,35.65
2018-09-29T09:30:51.084Z,36.61
2018-09-29T09:33:03.322Z,37.93
2018-09-29T09:35:15.591Z,36.77
2018-09-29T09:37:27.820Z,35.82
2018-09-29T09:39:40.095Z,37.39
2018-09-29T09:41:52.424Z,34.88
2018-09-29T09:44:04.915Z,35.15
2018-09-29T09:46:17.155Z,35.21
2018-09-29T09:48:29.442Z,36.24
2018-09-29T09:50:41.659Z,35.27
2018-09-29T09:52:54.173Z,36.71
2018-09-29T09:55:06.415Z,37.01
2018-09-29T09:57:18.624Z,36.32
2018-09-29T09:59:30.928Z,36.95
2018-09-29T10:01:48.891Z,37.59
2018-09-29T10:04:01.159Z,37.99
2018-09-29T10:06:13.429Z,36.14
2018-09-29T10:08:25.659Z,37.96
2018-09-29T10:10:37.927Z,38.23
2018-09-29T10:12:50.187Z,36.78
2018-09-29T10:15:02.492Z,37.25
2018-09-29T10:17:14.780Z,38.96
2018-09-29T10:19:27.052Z,39.72
2018-09-29T10:21:39.368Z,38.91
2018-09-29T10:23:51.634Z,39.62
2018-09-29T10:26:03.986Z,39.50
2018-09-29T10:28:16.276Z,39.85
2018-09-29T10:30:28.517Z,40.19
2018-09-29T10:32:40.791Z,40.17
2018-09-29T10:34:53.020Z,39.43
2018-09-29T10:37:05.283Z,40.63
2018-09-29T10:39:17.499Z,39.86
2018-09-29T10:41:29.706Z,40.55
2018-09-29T10:43:41.941Z,39.81
2018-09-29T10:45:54.190Z,40.98
2018-09-29T10:48:06.475Z,41.60
2018-09-29T10:50:24.527Z,39.15
2018-09-29T10:52:36.783Z,39.91
2018-09-29T10:54:49.039Z,40.15
2018-09-29T10:57:01.253Z,39.96
2018-09-29T10:59:13.598Z,40.34
2018-09-29T11:01:25.856Z,41.88
2018-09-29T11:03:38.192Z,40.19
2018-09-29T11:05:50.525Z,40.37
2018-09-29T11:08:02.789Z,41.18
2018-09-29T11:10:15.044Z,40.59
2018-09-29T11:12:27.324Z,40.08
2018-09-29T11:14:45.604Z,40.84
2018-09-29T11:16:58.146Z,41.50
2018-09-29T11:19:10.351Z,41.01
2018-09-29T11:21:22.611Z,39.55
2018-09-29T11:23:35.542Z,40.74
2018-09-29T11:25:47.763Z,39.02
2018-09-29T11:28:00.030Z,39.53
2018-09-29T11:30:12.263Z,39.62
2018-09-29T11:32:24.544Z,39.05
2018-09-29T11:34:36.759Z,39.98
2018-09-29T11:36:49.065Z,40.58
2018-09-29T11:39:01.313Z,39.14
2018-09-29T11:41:13.642Z,38.65
2018-09-29T11:43:26.000Z,39.14
2018-09-29T11:45:38.621Z,38.66
2018-09-29T11:48:01.627Z,39.88
2018-09-29T11:50:13.968Z,41.57
2018-09-29T11:52:26.207Z,38.69
2018-09-29T11:54:38.483Z,39.61
2018-09-29T11:56:50.723Z,38.71
2018-09-29T11:59:03.053Z,38.03
2018-09-29T12:01:15.339Z,38.42
2018-09-29T12:03:27.610Z,39.09
2018-09-29T12:05:39.903Z,37.78
2018-09-29T12:07:52.258Z,37.92
2018-09-29T12:10:04.569Z,38.28
2018-09-29T12:12:16.792Z,38.11
2018-09-29T12:14:31.000Z,37.88
2018-09-29T12:16:43.317Z,38.26
2018-09-29T12:18:55.590Z,39.65
2018-09-29T12:21:07.912Z,38.96
2018-09-29T12:23:20.134Z,39.39
2018-09-29T12:25:32.351Z,38.67
2018-09-29T12:27:44.963Z,39.46
2018-09-29T12:29:57.300Z,41.06
2018-09-29T12:32:09.499Z,40.61
2018-09-29T12:34:21.771Z,39.56
2018-09-29T12:36:34.022Z,39.85
2018-09-29T12:38:46.240Z,39.31
2018-09-29T12:40:58.454Z,39.10
2018-09-29T12:43:10.713Z,39.90
2018-09-29T12:45:23.002Z,39.79
2018-09-29T12:47:35.291Z,39.28
2018-09-29T12:49:47.492Z,39.59
2018-09-29T12:51:59.824Z,37.69
2018-09-29T12:54:12.017Z,38.85
2018-09-29T12:56:24.539Z,39.01
2018-09-29T12:58:36.736Z,38.98
2018-09-29T13:00:49.037Z,38.18
2018-09-29T13:03:01.263Z,38.25
2018-09-29T13:05:13.535Z,37.53
2018-09-29T13:07:25.764Z,38.00
2018-09-29T13:09:38.655Z,37.93
2018-09-29T13:11:50.880Z,39.26
2018-09-29T13:14:03.249Z,37.82
2018-09-29T13:16:15.454Z,37.74
2018-09-29T13:18:27.705Z,38.68
2018-09-29T13:20:39.984Z,37.47
2018-09-29T13:22:52.233Z,37.08
2018-09-29T13:25:04.499Z,36.34
2018-09-29T13:27:16.800Z,36.35
2018-09-29T13:29:29.105Z,37.59
2018-09-29T13:31:41.374Z,38.19
2018-09-29T13:33:53.602Z,37.09
2018-09-29T13:36:05.836Z,36.37
2018-09-29T13:38:18.031Z,37.68
2018-09-29T13:40:30.296Z,36.72
2018-09-29T13:42:42.567Z,37.45
2018-09-29T13:44:55.005Z,37.24
2018-09-29T13:47:07.280Z,36.98
2018-09-29T13:49:19.616Z,37.91
2018-09-29T13:51:32.402Z,36.79
2018-09-29T13:53:44.664Z,35.98
2018-09-29T13:55:56.928Z,37.66
2018-09-29T13:58:09.214Z,37.19
2018-09-29T14:00:21.460Z,35.18
2018-09-29T14:02:33.735Z,36.26
2018-09-29T14:04:46.018Z,35.71
2018-09-29T14:06:58.215Z,34.44
2018-09-29T14:09:10.697Z,35.30
2018-09-29T14:11:22.983Z,35.60
2018-09-29T14:13:35.225Z,35.82
2018-09-29T14:15:47.481Z,36.47
2018-09-29T14:17:59.740Z,35.91
2018-09-29T14:20:12.049Z,35.86
2018-09-29T14:22:24.270Z,36.55
2018-09-29T14:24:36.443Z,34.71
2018-09-29T14:26:48.816Z,35.35
2018-09-29T14:29:01.039Z,35.08
2018-09-29T14:31:13.308Z,34.43
2018-09-29T14:33:25.552Z,34.65
2018-09-29T14:35:37.848Z,35.42
2018-09-29T14:37:50.111Z,34.65
2018-09-29T14:40:02.289Z,34.79
2018-09-29T14:42:14.523Z,34.63
2018-09-29T14:44:26.695Z,34.33
2018-09-29T14:46:38.967Z,34.02
2018-09-29T14:48:51.175Z,35.42
2018-09-29T14:51:03.407Z,34.77
2018-09-29T14:53:15.647Z,34.47
2018-09-29T14:55:27.903Z,35.22
2018-09-29T14:57:40.146Z,36.41
2018-09-29T14:59:52.362Z,35.44
2018-09-29T15:02:04.572Z,35.46
2018-09-29T15:04:16.883Z,35.18
2018-09-29T15:06:29.251Z,35.35
2018-09-29T15:08:41.677Z,36.51
2018-09-29T15:10:54.059Z,35.73
2018-09-29T15:13:06.139Z,36.89
2018-09-29T15:15:18.387Z,37.18
2018-09-29T15:17:30.600Z,36.12
2018-09-29T15:19:42.860Z,36.33
2018-09-29T15:21:55.108Z,34.28
2018-09-29T15:24:07.318Z,35.25
2018-09-29T15:26:19.588Z,35.13
2018-09-29T15:28:31.879Z,36.10
2018-09-29T15:30:44.192Z,36.62
2018-09-29T15:32:56.402Z,37.02
2018-09-29T15:35:08.754Z,37.41
2018-09-29T15:37:20.973Z,35.56
2018-09-29T15:39:33.230Z,36.14
2018-09-29T15:41:45.475Z,36.20
2018-09-29T15:43:57.727Z,35.76
2018-09-29T15:46:09.987Z,35.98
2018-09-29T15:48:22.227Z,36.24
2018-09-29T15:50:34.466Z,36.79
2018-09-29T15:52:46.935Z,36.69
2018-09-29T15:54:59.221Z,37.23
2018-09-29T15:57:11.462Z,37.00
2018-09-29T15:59:23.737Z,37.27
2018-09-29T16:01:35.973Z,37.30
2018-09-29T16:03:48.251Z,36.89
2018-09-29T16:06:00.687Z,36.53
2018-09-29T16:08:12.974Z,37.17
2018-09-29T16:10:25.199Z,36.72
2018-09-29T16:12:37.480Z,36.79
2018-09-29T16:14:49.752Z,36.66
2018-09-29T16:17:02.033Z,36.27
2018-09-29T16:19:14.289Z,36.82
2018-09-29T16:21:26.690Z,36.77
2018-09-29T16:23:38.947Z,36.56
2018-09-29T16:25:51.219Z,36.36
2018-09-29T16:28:03.538Z,36.42
2018-09-29T16:30:15.807Z,35.96
2018-09-29T16:32:28.046Z,36.42
2018-09-29T16:34:40.283Z,36.09
2018-09-29T16:36:52.607Z,36.27
2018-09-29T16:39:07.867Z,37.21
2018-09-29T16:41:20.207Z,36.48
2018-09-29T16:43:32.544Z,36.74
2018-09-29T16:45:44.790Z,37.03
2018-09-29T16:47:57.020Z,38.29
2018-09-29T16:50:09.281Z,38.33
2018-09-29T16:52:21.503Z,38.50
2018-09-29T16:54:33.727Z,39.15
2018-09-29T16:56:45.954Z,39.42
2018-09-29T16:58:58.208Z,38.65
2018-09-29T17:01:10.503Z,38.42
2018-09-29T17:03:22.886Z,39.50
2018-09-29T17:05:35.119Z,39.29
2018-09-29T17:07:47.439Z,40.02
2018-09-29T17:09:59.758Z,39.64
2018-09-29T17:12:12.012Z,39.91
2018-09-29T17:14:24.343Z,39.10
2018-09-29T17:16:36.620Z,39.21
2018-09-29T17:18:48.877Z,40.19
2018-09-29T17:21:01.225Z,39.24
2018-09-29T17:23:13.466Z,39.98
2018-09-29T17:25:25.767Z,39.31
2018-09-29T17:27:38.289Z,39.59
2018-09-29T17:29:50.550Z,39.94
2018-09-29T17:32:02.838Z,39.39
2018-09-29T17:34:15.126Z,42.20
2018-09-29T17:36:27.425Z,44.20
2018-09-29T17:38:39.700Z,45.33
2018-09-29T17:40:52.012Z,45.90
2018-09-29T17:43:04.273Z,46.81
2018-09-29T17:45:16.587Z,46.83
2018-09-29T17:47:28.834Z,47.89
2018-09-29T17:49:41.103Z,48.21
2018-09-29T17:51:53.447Z,49.17
2018-09-29T17:54:05.707Z,48.97
2018-09-29T17:56:18.023Z,48.66
2018-09-29T17:58:30.459Z,49.57
2018-09-29T18:00:42.803Z,50.10
2018-09-29T18:02:55.025Z,50.52
2018-09-29T18:05:07.338Z,50.71
2018-09-29T18:07:19.615Z,52.44
2018-09-29T18:09:31.851Z,52.08
2018-09-29T18:11:44.109Z,53.64
2018-09-29T18:13:56.335Z,53.53
2018-09-29T18:16:08.578Z,53.84
2018-09-29T18:18:20.826Z,53.32
2018-09-29T18:20:33.219Z,53.87
2018-09-29T18:22:45.485Z,53.46
2018-09-29T18:24:57.772Z,54.03
2018-09-29T18:27:10.411Z,54.49
2018-09-29T18:29:22.623Z,55.30
2018-09-29T18:31:34.947Z,55.02
2018-09-29T18:33:47.202Z,54.88
2018-09-29T18:35:59.481Z,55.50
2018-09-29T18:38:11.750Z,55.85
2018-09-29T18:40:24.000Z,55.72
2018-09-29T18:42:36.342Z,61.09
2018-09-29T18:44:48.642Z,55.75
2018-09-29T18:47:00.947Z,55.03
2018-09-29T18:49:13.185Z,55.92
2018-09-29T18:51:25.404Z,55.57
2018-09-29T18:53:37.683Z,57.38
2018-09-29T18:55:49.968Z,56.68
2018-09-29T18:58:02.295Z,57.24
2018-09-29T19:00:14.593Z,56.69
2018-09-29T19:02:26.841Z,57.29
2018-09-29T19:04:39.134Z,58.05
2018-09-29T19:06:51.370Z,58.63
2018-09-29T19:09:05.386Z,59.30
2018-09-29T19:11:17.644Z,59.87
2018-09-29T19:13:29.892Z,59.20
2018-09-29T19:15:42.128Z,59.44
2018-09-29T19:17:54.350Z,60.49
2018-09-29T19:20:06.635Z,60.60
2018-09-29T19:22:18.855Z,59.84
2018-09-29T19:24:31.185Z,59.71
2018-09-29T19:26:43.538Z,59.85
2018-09-29T19:28:55.776Z,60.27
2018-09-29T19:31:08.070Z,60.18
2018-09-29T19:33:20.268Z,60.56
2018-09-29T19:35:32.567Z,60.58
2018-09-29T19:37:44.834Z,61.36
2018-09-29T19:39:57.088Z,61.10
2018-09-29T19:42:09.378Z,61.30
2018-09-29T19:44:21.639Z,61.36
2018-09-29T19:46:33.899Z,61.75
2018-09-29T19:48:46.160Z,61.90
2018-09-29T19:50:58.379Z,62.79
2018-09-29T19:53:10.672Z,62.46
2018-09-29T19:55:22.855Z,63.00
2018-09-29T19:57:35.084Z,63.14
2018-09-29T19:59:47.445Z,62.92
2018-09-29T20:01:59.742Z,63.03
2018-09-29T20:04:12.104Z,62.26
2018-09-29T20:06:24.398Z,63.08
2018-09-29T20:08:36.679Z,62.76
2018-09-29T20:10:49.023Z,63.32
2018-09-29T20:13:01.316Z,63.61
2018-09-29T20:15:13.581Z,62.73
2018-09-29T20:17:25.831Z,63.33
2018-09-29T20:19:38.115Z,63.38
2018-09-29T20:21:50.387Z,62.49
2018-09-29T20:24:02.650Z,63.71
2018-09-29T20:26:14.918Z,63.63
2018-09-29T20:28:27.221Z,64.00
2018-09-29T20:30:39.603Z,64.03
2018-09-29T20:32:51.791Z,63.93
2018-09-29T20:35:04.006Z,64.79
2018-09-29T20:37:16.310Z,64.69
2018-09-29T20:39:28.528Z,64.41
2018-09-29T20:41:41.560Z,63.85
2018-09-29T20:43:53.832Z,64.56
2018-09-29T20:46:06.583Z,64.12
2018-09-29T20:48:19.158Z,63.70
2018-09-29T20:50:31.368Z,64.68
2018-09-29T20:52:43.623Z,64.55
2018-09-29T20:54:55.906Z,64.59
2018-09-29T20:57:08.114Z,64.76
2018-09-29T20:59:20.326Z,65.10
2018-09-29T21:01:32.640Z,66.09
2018-09-29T21:03:44.822Z,66.28
2018-09-29T21:05:57.060Z,66.24
2018-09-29T21:08:09.739Z,66.73
2018-09-29T21:10:22.008Z,66.80
2018-09-29T21:12:34.219Z,66.95
2018-09-29T21:14:46.721Z,66.63
2018-09-29T21:16:58.924Z,66.50
2018-09-29T21:19:11.217Z,66.85
2018-09-29T21:21:23.443Z,66.42
2018-09-29T21:23:35.732Z,67.16
2018-09-29T21:25:48.003Z,67.48
2018-09-29T21:28:00.278Z,66.98
2018-09-29T21:30:12.520Z,66.41
2018-09-29T21:32:24.827Z,67.11
2018-09-29T21:34:37.003Z,66.93
2018-09-29T21:36:49.329Z,66.86
2018-09-29T21:39:01.543Z,67.39
2018-09-29T21:41:13.790Z,67.17
2018-09-29T21:43:26.019Z,67.91
2018-09-29T21:45:38.354Z,68.23
2018-09-29T21:47:50.567Z,67.79
2018-09-29T21:50:02.769Z,68.23
2018-09-29T21:52:15.001Z,68.18
2018-09-29T21:54:27.195Z,68.58
2018-09-29T21:56:39.401Z,68.07
2018-09-29T21:58:51.666Z,67.43
2018-09-29T22:01:09.382Z,68.15
2018-09-29T22:03:21.599Z,68.42
2018-09-29T22:05:33.867Z,67.77
2018-09-29T22:07:46.079Z,68.44
2018-09-29T22:09:58.284Z,68.44
2018-09-29T22:12:10.541Z,69.18
2018-09-29T22:14:22.807Z,68.56
2018-09-29T22:16:35.044Z,68.65
2018-09-29T22:18:47.310Z,67.92
2018-09-29T22:20:59.634Z,69.48
2018-09-29T22:23:11.815Z,69.47
2018-09-29T22:25:24.002Z,69.44
2018-09-29T22:27:36.228Z,68.27
2018-09-29T22:29:48.444Z,68.86
2018-09-29T22:32:00.670Z,69.47
2018-09-29T22:34:12.867Z,69.45
2018-09-29T22:36:25.202Z,69.47
2018-09-29T22:38:37.419Z,70.04
2018-09-29T22:40:49.628Z,69.60
2018-09-29T22:43:01.898Z,70.61
2018-09-29T22:45:14.102Z,70.41
2018-09-29T22:47:26.367Z,69.85
2018-09-29T22:49:38.565Z,70.39
2018-09-29T22:51:50.800Z,70.59
2018-09-29T22:54:03.319Z,70.82
2018-09-29T22:56:15.500Z,70.53
2018-09-29T22:58:27.812Z,70.82
2018-09-29T23:00:40.135Z,70.49
2018-09-29T23:02:52.375Z,70.54
2018-09-29T23:05:04.634Z,70.19
2018-09-29T23:07:16.836Z,70.87
2018-09-29T23:09:29.104Z,70.48
2018-09-29T23:11:41.480Z,70.98
2018-09-29T23:13:53.680Z,71.12
2018-09-29T23:16:05.974Z,71.48
2018-09-29T23:18:18.154Z,71.20
2018-09-29T23:20:30.379Z,71.05
2018-09-29T23:22:42.581Z,70.29
2018-09-29T23:24:54.794Z,70.71
2018-09-29T23:27:07.012Z,70.49
2018-09-29T23:29:19.195Z,71.37
2018-09-29T23:31:31.397Z,71.38
2018-09-29T23:33:43.641Z,71.13
2018-09-29T23:35:55.843Z,71.66
2018-09-29T23:38:08.072Z,71.00
2018-09-29T23:40:20.271Z,72.07
2018-09-29T23:42:32.609Z,71.97
2018-09-29T23:44:44.878Z,71.65
2018-09-29T23:46:57.075Z,72.44
2018-09-29T23:49:09.275Z,72.33
2018-09-29T23:51:21.458Z,72.44
2018-09-29T23:53:33.667Z,71.65
2018-09-29T23:55:45.898Z,71.48
2018-09-29T23:57:58.146Z,72.01
